sensor_id;sensor_type;location;lat;lon;timestamp;P1;durP1;ratioP1;P2;durP2;ratioP2
18720;SDS011;9489;50.948;3.114;2022-08-21T13:28:34;6.20;;;2.53;;
18720;SDS011;9489;50.948;3.114;2022-08-21T13:31:05;7.88;;;3.15;;
18720;SDS011;9489;50.948;3.114;2022-08-21T13:33:35;6.63;;;2.80;;
18720;SDS011;9489;50.948;3.114;2022-08-21T13:36:37;4.25;;;2.40;;
18720;SDS011;9489;50.948;3.114;2022-08-21T13:38:58;7.07;;;2.55;;
18720;SDS011;9489;50.948;3.114;2022-08-21T13:41:26;7.53;;;3.05;;
18720;SDS011;9489;50.948;3.114;2022-08-21T13:43:59;8.85;;;3.17;;
18720;SDS011;9489;50.948;3.114;2022-08-21T13:46:28;8.60;;;2.92;;
18720;SDS011;9489;50.948;3.114;2022-08-21T13:48:59;6.38;;;2.70;;
18720;SDS011;9489;50.948;3.114;2022-08-21T13:51:28;8.63;;;3.08;;
18720;SDS011;9489;50.948;3.114;2022-08-21T13:53:55;6.45;;;2.97;;
18720;SDS011;9489;50.948;3.114;2022-08-21T13:56:21;7.78;;;3.33;;
18720;SDS011;9489;50.948;3.114;2022-08-21T13:58:50;8.55;;;3.17;;
18720;SDS011;9489;50.948;3.114;2022-08-21T14:01:33;5.60;;;3.03;;
18720;SDS011;9489;50.948;3.114;2022-08-21T14:04:18;9.57;;;3.00;;
18720;SDS011;9489;50.948;3.114;2022-08-21T14:06:48;6.57;;;2.80;;
18720;SDS011;9489;50.948;3.114;2022-08-21T14:11:55;9.80;;;2.70;;
18720;SDS011;9489;50.948;3.114;2022-08-21T14:14:24;5.63;;;2.90;;
18720;SDS011;9489;50.948;3.114;2022-08-21T14:19:26;7.47;;;2.38;;
18720;SDS011;9489;50.948;3.114;2022-08-21T14:22:22;7.22;;;2.90;;
18720;SDS011;9489;50.948;3.114;2022-08-21T14:27:27;4.82;;;2.63;;
18720;SDS011;9489;50.948;3.114;2022-08-21T14:30:00;6.70;;;3.08;;
18720;SDS011;9489;50.948;3.114;2022-08-21T14:32:30;6.25;;;2.80;;
18720;SDS011;9489;50.948;3.114;2022-08-21T14:35:02;5.78;;;2.58;;
18720;SDS011;9489;50.948;3.114;2022-08-21T14:37:28;4.63;;;2.53;;
18720;SDS011;9489;50.948;3.114;2022-08-21T14:39:54;5.90;;;2.42;;
18720;SDS011;9489;50.948;3.114;2022-08-21T14:42:19;6.20;;;3.08;;
18720;SDS011;9489;50.948;3.114;2022-08-21T14:44:45;6.40;;;2.75;;
18720;SDS011;9489;50.948;3.114;2022-08-21T14:47:12;8.60;;;3.08;;
18720;SDS011;9489;50.948;3.114;2022-08-21T14:49:37;7.40;;;2.78;;
18720;SDS011;9489;50.948;3.114;2022-08-21T14:52:03;6.43;;;2.70;;
18720;SDS011;9489;50.948;3.114;2022-08-21T14:54:30;8.05;;;2.95;;
18720;SDS011;9489;50.948;3.114;2022-08-21T14:56:57;7.47;;;3.13;;
18720;SDS011;9489;50.948;3.114;2022-08-21T14:59:25;5.60;;;2.78;;
18720;SDS011;9489;50.948;3.114;2022-08-21T15:01:51;7.57;;;2.78;;
18720;SDS011;9489;50.948;3.114;2022-08-21T15:04:17;6.47;;;2.20;;
18720;SDS011;9489;50.948;3.114;2022-08-21T15:06:43;6.70;;;3.03;;
18720;SDS011;9489;50.948;3.114;2022-08-21T15:09:09;5.30;;;2.65;;
18720;SDS011;9489;50.948;3.114;2022-08-21T15:11:34;4.65;;;2.63;;
18720;SDS011;9489;50.948;3.114;2022-08-21T15:14:01;6.63;;;2.95;;
18720;SDS011;9489;50.948;3.114;2022-08-21T15:16:29;5.78;;;2.63;;
18720;SDS011;9489;50.948;3.114;2022-08-21T15:18:56;6.07;;;2.75;;
18720;SDS011;9489;50.948;3.114;2022-08-21T15:21:22;7.05;;;3.17;;
18720;SDS011;9489;50.948;3.114;2022-08-21T15:23:48;4.70;;;2.22;;
18720;SDS011;9489;50.948;3.114;2022-08-21T15:26:13;9.77;;;3.25;;
18720;SDS011;9489;50.948;3.114;2022-08-21T15:28:39;7.32;;;2.60;;
18720;SDS011;9489;50.948;3.114;2022-08-21T15:31:05;6.18;;;2.33;;
18720;SDS011;9489;50.948;3.114;2022-08-21T15:33:31;5.57;;;2.88;;
18720;SDS011;9489;50.948;3.114;2022-08-21T15:35:57;6.75;;;2.40;;
18720;SDS011;9489;50.948;3.114;2022-08-21T15:38:23;8.10;;;2.72;;
18720;SDS011;9489;50.948;3.114;2022-08-21T15:40:49;7.95;;;3.22;;
18720;SDS011;9489;50.948;3.114;2022-08-21T15:45:49;6.80;;;3.10;;
18720;SDS011;9489;50.948;3.114;2022-08-21T15:48:15;7.32;;;2.92;;
18720;SDS011;9489;50.948;3.114;2022-08-21T15:50:40;8.95;;;3.50;;
18720;SDS011;9489;50.948;3.114;2022-08-21T15:53:06;6.55;;;2.60;;
18720;SDS011;9489;50.948;3.114;2022-08-21T15:55:33;10.38;;;3.17;;
18720;SDS011;9489;50.948;3.114;2022-08-21T15:57:59;4.95;;;2.42;;
18720;SDS011;9489;50.948;3.114;2022-08-21T16:00:25;7.82;;;3.05;;
18720;SDS011;9489;50.948;3.114;2022-08-21T16:02:54;7.18;;;3.13;;
18720;SDS011;9489;50.948;3.114;2022-08-21T16:05:22;7.13;;;2.92;;
18720;SDS011;9489;50.948;3.114;2022-08-21T16:07:48;11.20;;;3.40;;
18720;SDS011;9489;50.948;3.114;2022-08-21T16:10:16;10.38;;;3.72;;
18720;SDS011;9489;50.948;3.114;2022-08-21T16:12:46;6.32;;;2.90;;
18720;SDS011;9489;50.948;3.114;2022-08-21T16:15:15;10.10;;;3.75;;
18720;SDS011;9489;50.948;3.114;2022-08-21T16:17:42;8.70;;;3.53;;
18720;SDS011;9489;50.948;3.114;2022-08-21T16:20:13;10.27;;;3.65;;
18720;SDS011;9489;50.948;3.114;2022-08-21T16:22:59;8.43;;;3.28;;
18720;SDS011;9489;50.948;3.114;2022-08-21T16:25:25;9.85;;;4.00;;
18720;SDS011;9489;50.948;3.114;2022-08-21T16:27:52;10.18;;;3.80;;
18720;SDS011;9489;50.948;3.114;2022-08-21T16:30:21;8.02;;;3.67;;
18720;SDS011;9489;50.948;3.114;2022-08-21T16:32:48;8.18;;;3.58;;
18720;SDS011;9489;50.948;3.114;2022-08-21T16:35:15;8.68;;;3.58;;
18720;SDS011;9489;50.948;3.114;2022-08-21T16:37:43;6.78;;;3.15;;
18720;SDS011;9489;50.948;3.114;2022-08-21T16:40:09;13.82;;;4.10;;
18720;SDS011;9489;50.948;3.114;2022-08-21T16:42:36;11.00;;;3.60;;
18720;SDS011;9489;50.948;3.114;2022-08-21T16:45:09;6.78;;;3.00;;
18720;SDS011;9489;50.948;3.114;2022-08-21T16:47:37;11.60;;;3.72;;
18720;SDS011;9489;50.948;3.114;2022-08-21T16:50:03;11.32;;;4.10;;
18720;SDS011;9489;50.948;3.114;2022-08-21T16:52:30;12.63;;;4.03;;
18720;SDS011;9489;50.948;3.114;2022-08-21T16:54:56;9.75;;;4.13;;
18720;SDS011;9489;50.948;3.114;2022-08-21T16:57:22;11.25;;;4.72;;
18720;SDS011;9489;50.948;3.114;2022-08-21T16:59:49;11.90;;;5.35;;
18720;SDS011;9489;50.948;3.114;2022-08-21T17:02:29;10.05;;;4.38;;
18720;SDS011;9489;50.948;3.114;2022-08-21T17:04:59;14.77;;;7.50;;
18720;SDS011;9489;50.948;3.114;2022-08-21T17:07:26;9.73;;;4.80;;
18720;SDS011;9489;50.948;3.114;2022-08-21T17:09:53;12.68;;;5.30;;
18720;SDS011;9489;50.948;3.114;2022-08-21T17:12:19;10.43;;;4.38;;
18720;SDS011;9489;50.948;3.114;2022-08-21T17:14:46;9.80;;;4.38;;
18720;SDS011;9489;50.948;3.114;2022-08-21T17:17:12;8.55;;;5.25;;
18720;SDS011;9489;50.948;3.114;2022-08-21T17:19:39;9.55;;;4.63;;
18720;SDS011;9489;50.948;3.114;2022-08-21T17:22:06;9.45;;;4.70;;
18720;SDS011;9489;50.948;3.114;2022-08-21T17:24:33;9.68;;;4.50;;
18720;SDS011;9489;50.948;3.114;2022-08-21T17:26:59;11.73;;;4.15;;
18720;SDS011;9489;50.948;3.114;2022-08-21T17:29:27;10.40;;;4.50;;
18720;SDS011;9489;50.948;3.114;2022-08-21T17:32:03;11.73;;;4.82;;
18720;SDS011;9489;50.948;3.114;2022-08-21T17:34:32;10.10;;;5.35;;
18720;SDS011;9489;50.948;3.114;2022-08-21T17:36:58;10.32;;;4.88;;
18720;SDS011;9489;50.948;3.114;2022-08-21T17:39:24;10.38;;;4.63;;
18720;SDS011;9489;50.948;3.114;2022-08-21T17:41:50;11.57;;;4.28;;
18720;SDS011;9489;50.948;3.114;2022-08-21T17:44:17;10.45;;;4.93;;
18720;SDS011;9489;50.948;3.114;2022-08-21T17:46:44;12.25;;;5.05;;
18720;SDS011;9489;50.948;3.114;2022-08-21T17:49:11;8.00;;;4.32;;
18720;SDS011;9489;50.948;3.114;2022-08-21T17:51:39;9.93;;;4.20;;
18720;SDS011;9489;50.948;3.114;2022-08-21T17:54:04;11.45;;;4.43;;
18720;SDS011;9489;50.948;3.114;2022-08-21T17:56:31;8.52;;;4.00;;
18720;SDS011;9489;50.948;3.114;2022-08-21T17:58:59;11.00;;;5.07;;
18720;SDS011;9489;50.948;3.114;2022-08-21T18:01:27;9.85;;;3.75;;
18720;SDS011;9489;50.948;3.114;2022-08-21T18:03:56;9.32;;;4.32;;
18720;SDS011;9489;50.948;3.114;2022-08-21T18:06:22;9.43;;;3.75;;
18720;SDS011;9489;50.948;3.114;2022-08-21T18:08:47;13.68;;;5.03;;
18720;SDS011;9489;50.948;3.114;2022-08-21T18:11:14;9.18;;;3.42;;
18720;SDS011;9489;50.948;3.114;2022-08-21T18:13:41;7.28;;;4.25;;
18720;SDS011;9489;50.948;3.114;2022-08-21T18:16:06;9.32;;;3.58;;
18720;SDS011;9489;50.948;3.114;2022-08-21T18:18:36;9.25;;;4.20;;
18720;SDS011;9489;50.948;3.114;2022-08-21T18:21:06;10.75;;;5.13;;
18720;SDS011;9489;50.948;3.114;2022-08-21T18:23:32;8.80;;;4.22;;
18720;SDS011;9489;50.948;3.114;2022-08-21T18:25:57;8.70;;;4.00;;
18720;SDS011;9489;50.948;3.114;2022-08-21T18:28:23;10.13;;;4.75;;
18720;SDS011;9489;50.948;3.114;2022-08-21T18:30:49;7.25;;;3.45;;
18720;SDS011;9489;50.948;3.114;2022-08-21T18:33:18;8.85;;;3.50;;
18720;SDS011;9489;50.948;3.114;2022-08-21T18:35:45;10.18;;;4.07;;
18720;SDS011;9489;50.948;3.114;2022-08-21T18:38:11;9.65;;;3.58;;
18720;SDS011;9489;50.948;3.114;2022-08-21T18:40:38;9.40;;;3.80;;
18720;SDS011;9489;50.948;3.114;2022-08-21T18:43:08;8.20;;;3.97;;
18720;SDS011;9489;50.948;3.114;2022-08-21T18:45:36;7.38;;;3.42;;
18720;SDS011;9489;50.948;3.114;2022-08-21T18:48:04;9.32;;;3.90;;
18720;SDS011;9489;50.948;3.114;2022-08-21T18:50:33;8.98;;;4.10;;
18720;SDS011;9489;50.948;3.114;2022-08-21T18:53:00;8.52;;;3.28;;
18720;SDS011;9489;50.948;3.114;2022-08-21T18:55:25;9.15;;;3.25;;
18720;SDS011;9489;50.948;3.114;2022-08-21T18:57:55;10.60;;;3.83;;
18720;SDS011;9489;50.948;3.114;2022-08-21T19:00:27;12.50;;;4.20;;
18720;SDS011;9489;50.948;3.114;2022-08-21T19:02:55;7.30;;;3.00;;
18720;SDS011;9489;50.948;3.114;2022-08-21T19:05:21;10.15;;;3.50;;
18720;SDS011;9489;50.948;3.114;2022-08-21T19:07:48;6.97;;;3.22;;
18720;SDS011;9489;50.948;3.114;2022-08-21T19:10:14;9.05;;;4.30;;
18720;SDS011;9489;50.948;3.114;2022-08-21T19:12:40;8.98;;;3.83;;
18720;SDS011;9489;50.948;3.114;2022-08-21T19:15:08;9.20;;;3.72;;
18720;SDS011;9489;50.948;3.114;2022-08-21T19:17:37;9.85;;;3.28;;
18720;SDS011;9489;50.948;3.114;2022-08-21T19:20:05;10.27;;;4.10;;
18720;SDS011;9489;50.948;3.114;2022-08-21T19:22:36;9.68;;;4.35;;
18720;SDS011;9489;50.948;3.114;2022-08-21T19:25:02;8.80;;;3.67;;
18720;SDS011;9489;50.948;3.114;2022-08-21T19:27:28;10.20;;;4.03;;
18720;SDS011;9489;50.948;3.114;2022-08-21T19:29:54;11.35;;;3.90;;
18720;SDS011;9489;50.948;3.114;2022-08-21T19:32:19;8.25;;;3.72;;
18720;SDS011;9489;50.948;3.114;2022-08-21T19:34:45;8.95;;;3.45;;
18720;SDS011;9489;50.948;3.114;2022-08-21T19:37:11;11.02;;;4.43;;
18720;SDS011;9489;50.948;3.114;2022-08-21T19:39:40;8.15;;;3.85;;
18720;SDS011;9489;50.948;3.114;2022-08-21T19:42:06;8.57;;;4.32;;
18720;SDS011;9489;50.948;3.114;2022-08-21T19:44:33;11.65;;;4.43;;
18720;SDS011;9489;50.948;3.114;2022-08-21T19:47:01;10.50;;;4.70;;
18720;SDS011;9489;50.948;3.114;2022-08-21T19:49:29;10.63;;;5.03;;
18720;SDS011;9489;50.948;3.114;2022-08-21T19:51:57;7.95;;;4.93;;
18720;SDS011;9489;50.948;3.114;2022-08-21T19:54:24;12.45;;;5.60;;
18720;SDS011;9489;50.948;3.114;2022-08-21T19:56:52;10.20;;;5.13;;
18720;SDS011;9489;50.948;3.114;2022-08-21T19:59:20;8.90;;;4.57;;
18720;SDS011;9489;50.948;3.114;2022-08-21T20:01:47;11.18;;;4.70;;
18720;SDS011;9489;50.948;3.114;2022-08-21T20:04:13;10.30;;;4.47;;
18720;SDS011;9489;50.948;3.114;2022-08-21T20:06:39;9.02;;;4.63;;
18720;SDS011;9489;50.948;3.114;2022-08-21T20:09:06;12.65;;;4.88;;
18720;SDS011;9489;50.948;3.114;2022-08-21T20:11:36;7.70;;;3.50;;
18720;SDS011;9489;50.948;3.114;2022-08-21T20:14:08;8.18;;;4.43;;
18720;SDS011;9489;50.948;3.114;2022-08-21T20:16:36;9.15;;;4.20;;
18720;SDS011;9489;50.948;3.114;2022-08-21T20:19:04;11.55;;;4.32;;
18720;SDS011;9489;50.948;3.114;2022-08-21T20:21:32;11.32;;;5.03;;
18720;SDS011;9489;50.948;3.114;2022-08-21T20:23:59;9.38;;;4.45;;
18720;SDS011;9489;50.948;3.114;2022-08-21T20:26:25;11.00;;;4.43;;
18720;SDS011;9489;50.948;3.114;2022-08-21T20:28:51;9.60;;;4.63;;
18720;SDS011;9489;50.948;3.114;2022-08-21T20:31:18;7.30;;;4.10;;
18720;SDS011;9489;50.948;3.114;2022-08-21T20:33:45;11.25;;;4.65;;
18720;SDS011;9489;50.948;3.114;2022-08-21T20:36:12;9.80;;;5.35;;
18720;SDS011;9489;50.948;3.114;2022-08-21T20:38:37;14.88;;;5.78;;
18720;SDS011;9489;50.948;3.114;2022-08-21T20:41:03;11.02;;;5.68;;
18720;SDS011;9489;50.948;3.114;2022-08-21T20:43:31;13.63;;;5.38;;
18720;SDS011;9489;50.948;3.114;2022-08-21T20:46:00;9.05;;;5.57;;
18720;SDS011;9489;50.948;3.114;2022-08-21T20:48:27;11.93;;;5.93;;
18720;SDS011;9489;50.948;3.114;2022-08-21T20:53:41;8.55;;;6.18;;
18720;SDS011;9489;50.948;3.114;2022-08-21T20:56:14;9.48;;;5.97;;
18720;SDS011;9489;50.948;3.114;2022-08-21T20:59:03;13.18;;;8.00;;
18720;SDS011;9489;50.948;3.114;2022-08-21T21:01:38;12.70;;;8.07;;
18720;SDS011;9489;50.948;3.114;2022-08-21T21:04:09;10.45;;;6.78;;
18720;SDS011;9489;50.948;3.114;2022-08-21T21:06:41;11.60;;;7.40;;
18720;SDS011;9489;50.948;3.114;2022-08-21T21:09:09;13.75;;;8.27;;
18720;SDS011;9489;50.948;3.114;2022-08-21T21:11:39;12.57;;;8.10;;
18720;SDS011;9489;50.948;3.114;2022-08-21T21:14:13;8.73;;;7.38;;
18720;SDS011;9489;50.948;3.114;2022-08-21T21:16:43;10.73;;;7.28;;
18720;SDS011;9489;50.948;3.114;2022-08-21T21:19:29;12.65;;;8.35;;
18720;SDS011;9489;50.948;3.114;2022-08-21T21:22:03;14.68;;;9.23;;
18720;SDS011;9489;50.948;3.114;2022-08-21T21:27:25;9.82;;;7.13;;
18720;SDS011;9489;50.948;3.114;2022-08-21T21:30:18;12.35;;;8.75;;
18720;SDS011;9489;50.948;3.114;2022-08-21T21:33:01;11.77;;;7.95;;
18720;SDS011;9489;50.948;3.114;2022-08-21T21:35:31;15.98;;;9.77;;
18720;SDS011;9489;50.948;3.114;2022-08-21T21:38:13;12.93;;;8.45;;
18720;SDS011;9489;50.948;3.114;2022-08-21T21:43:42;16.73;;;9.75;;
18720;SDS011;9489;50.948;3.114;2022-08-21T21:46:32;16.75;;;9.02;;
18720;SDS011;9489;50.948;3.114;2022-08-21T22:00:31;11.75;;;7.50;;
18720;SDS011;9489;50.948;3.114;2022-08-21T22:05:38;11.93;;;7.15;;
18720;SDS011;9489;50.948;3.114;2022-08-21T22:08:13;11.65;;;6.55;;
18720;SDS011;9489;50.948;3.114;2022-08-21T22:10:51;11.18;;;7.40;;
18720;SDS011;9489;50.948;3.114;2022-08-21T22:16:21;12.32;;;6.80;;
18720;SDS011;9489;50.948;3.114;2022-08-21T22:18:49;11.82;;;7.78;;
18720;SDS011;9489;50.948;3.114;2022-08-21T22:21:22;11.93;;;7.75;;
18720;SDS011;9489;50.948;3.114;2022-08-21T22:23:55;9.55;;;6.65;;
18720;SDS011;9489;50.948;3.114;2022-08-21T22:26:30;10.85;;;7.10;;
18720;SDS011;9489;50.948;3.114;2022-08-21T22:29:03;8.73;;;6.88;;
18720;SDS011;9489;50.948;3.114;2022-08-21T22:31:34;15.57;;;8.57;;
18720;SDS011;9489;50.948;3.114;2022-08-21T22:36:29;8.38;;;6.47;;
18720;SDS011;9489;50.948;3.114;2022-08-21T22:38:57;14.30;;;7.28;;
18720;SDS011;9489;50.948;3.114;2022-08-21T22:41:26;10.68;;;7.70;;
18720;SDS011;9489;50.948;3.114;2022-08-21T22:47:04;10.98;;;7.80;;
18720;SDS011;9489;50.948;3.114;2022-08-21T22:51:54;12.55;;;8.60;;
18720;SDS011;9489;50.948;3.114;2022-08-21T22:54:33;10.65;;;8.50;;
18720;SDS011;9489;50.948;3.114;2022-08-21T22:57:03;13.25;;;8.80;;
18720;SDS011;9489;50.948;3.114;2022-08-21T22:59:33;15.50;;;10.32;;
18720;SDS011;9489;50.948;3.114;2022-08-21T23:02:09;14.63;;;9.13;;
18720;SDS011;9489;50.948;3.114;2022-08-21T23:04:49;15.80;;;9.98;;
18720;SDS011;9489;50.948;3.114;2022-08-21T23:07:37;18.27;;;10.40;;
18720;SDS011;9489;50.948;3.114;2022-08-21T23:10:08;16.10;;;10.35;;
18720;SDS011;9489;50.948;3.114;2022-08-21T23:12:39;15.50;;;10.10;;
18720;SDS011;9489;50.948;3.114;2022-08-21T23:15:09;14.88;;;10.93;;
18720;SDS011;9489;50.948;3.114;2022-08-21T23:17:59;13.68;;;9.38;;
18720;SDS011;9489;50.948;3.114;2022-08-21T23:20:41;14.70;;;9.68;;
18720;SDS011;9489;50.948;3.114;2022-08-21T23:23:27;11.57;;;8.35;;
18720;SDS011;9489;50.948;3.114;2022-08-21T23:26:04;15.20;;;9.07;;
18720;SDS011;9489;50.948;3.114;2022-08-21T23:28:50;9.73;;;8.57;;
18720;SDS011;9489;50.948;3.114;2022-08-21T23:31:29;14.95;;;11.10;;
18720;SDS011;9489;50.948;3.114;2022-08-21T23:34:08;12.68;;;9.20;;
18720;SDS011;9489;50.948;3.114;2022-08-21T23:40:16;12.90;;;8.30;;
18720;SDS011;9489;50.948;3.114;2022-08-21T23:46:09;19.63;;;10.30;;
18720;SDS011;9489;50.948;3.114;2022-08-21T23:54:34;15.50;;;10.30;;
18720;SDS011;9489;50.948;3.114;2022-08-21T23:57:24;15.00;;;10.35;;
